sensor_id;sensor_type;location;lat;lon;timestamp;P1;durP1;ratioP1;P2;durP2;ratioP2
57389;SDS011;43217;52.694;6.214;2024-03-08T00:02:03;34.58;;;25.15;;
57389;SDS011;43217;52.694;6.214;2024-03-08T00:04:29;30.13;;;23.55;;
57389;SDS011;43217;52.694;6.214;2024-03-08T00:06:54;32.58;;;23.38;;
57389;SDS011;43217;52.694;6.214;2024-03-08T00:09:20;30.20;;;23.33;;
57389;SDS011;43217;52.694;6.214;2024-03-08T00:11:46;31.23;;;24.15;;
57389;SDS011;43217;52.694;6.214;2024-03-08T00:14:14;32.65;;;23.40;;
57389;SDS011;43217;52.694;6.214;2024-03-08T00:16:39;31.08;;;23.45;;
57389;SDS011;43217;52.694;6.214;2024-03-08T00:19:08;34.63;;;24.45;;
57389;SDS011;43217;52.694;6.214;2024-03-08T00:21:34;31.25;;;23.70;;
57389;SDS011;43217;52.694;6.214;2024-03-08T00:24:00;30.98;;;24.13;;
57389;SDS011;43217;52.694;6.214;2024-03-08T00:26:26;30.42;;;24.23;;
57389;SDS011;43217;52.694;6.214;2024-03-08T00:28:52;32.15;;;23.77;;
57389;SDS011;43217;52.694;6.214;2024-03-08T00:31:18;34.63;;;24.58;;
57389;SDS011;43217;52.694;6.214;2024-03-08T00:33:45;28.40;;;23.50;;
57389;SDS011;43217;52.694;6.214;2024-03-08T00:36:11;33.50;;;24.05;;
57389;SDS011;43217;52.694;6.214;2024-03-08T00:38:36;32.10;;;24.15;;
57389;SDS011;43217;52.694;6.214;2024-03-08T00:41:02;30.73;;;23.60;;
57389;SDS011;43217;52.694;6.214;2024-03-08T00:43:28;28.20;;;22.98;;
57389;SDS011;43217;52.694;6.214;2024-03-08T00:45:55;33.65;;;25.25;;
57389;SDS011;43217;52.694;6.214;2024-03-08T00:48:21;31.73;;;23.38;;
57389;SDS011;43217;52.694;6.214;2024-03-08T00:50:46;29.75;;;22.13;;
57389;SDS011;43217;52.694;6.214;2024-03-08T00:53:13;31.38;;;23.42;;
57389;SDS011;43217;52.694;6.214;2024-03-08T00:55:38;29.73;;;24.17;;
57389;SDS011;43217;52.694;6.214;2024-03-08T00:58:04;29.20;;;23.33;;
57389;SDS011;43217;52.694;6.214;2024-03-08T01:00:30;34.08;;;24.15;;
57389;SDS011;43217;52.694;6.214;2024-03-08T01:02:56;32.67;;;23.95;;
57389;SDS011;43217;52.694;6.214;2024-03-08T01:05:21;32.60;;;23.83;;
57389;SDS011;43217;52.694;6.214;2024-03-08T01:07:49;31.60;;;24.35;;
57389;SDS011;43217;52.694;6.214;2024-03-08T01:10:15;28.55;;;22.75;;
57389;SDS011;43217;52.694;6.214;2024-03-08T01:12:41;30.20;;;23.45;;
57389;SDS011;43217;52.694;6.214;2024-03-08T01:15:08;31.60;;;23.67;;
57389;SDS011;43217;52.694;6.214;2024-03-08T01:17:35;31.73;;;23.35;;
57389;SDS011;43217;52.694;6.214;2024-03-08T01:20:01;29.75;;;24.80;;
57389;SDS011;43217;52.694;6.214;2024-03-08T01:22:28;28.98;;;23.17;;
57389;SDS011;43217;52.694;6.214;2024-03-08T01:24:55;34.77;;;23.83;;
57389;SDS011;43217;52.694;6.214;2024-03-08T01:27:21;31.70;;;23.88;;
57389;SDS011;43217;52.694;6.214;2024-03-08T01:29:47;31.25;;;24.50;;
57389;SDS011;43217;52.694;6.214;2024-03-08T01:32:16;28.00;;;22.83;;
57389;SDS011;43217;52.694;6.214;2024-03-08T01:34:42;28.65;;;23.05;;
57389;SDS011;43217;52.694;6.214;2024-03-08T01:37:09;34.25;;;24.23;;
57389;SDS011;43217;52.694;6.214;2024-03-08T01:39:35;33.17;;;24.35;;
57389;SDS011;43217;52.694;6.214;2024-03-08T01:42:00;33.05;;;24.13;;
57389;SDS011;43217;52.694;6.214;2024-03-08T01:44:26;33.13;;;24.15;;
57389;SDS011;43217;52.694;6.214;2024-03-08T01:46:52;34.20;;;26.00;;
57389;SDS011;43217;52.694;6.214;2024-03-08T01:49:19;31.83;;;24.20;;
57389;SDS011;43217;52.694;6.214;2024-03-08T01:51:46;30.52;;;24.33;;
57389;SDS011;43217;52.694;6.214;2024-03-08T01:54:13;30.40;;;23.40;;
57389;SDS011;43217;52.694;6.214;2024-03-08T01:56:41;32.28;;;23.40;;
57389;SDS011;43217;52.694;6.214;2024-03-08T01:59:07;29.92;;;24.63;;
57389;SDS011;43217;52.694;6.214;2024-03-08T02:01:34;32.50;;;24.30;;
57389;SDS011;43217;52.694;6.214;2024-03-08T02:04:00;33.08;;;23.95;;
57389;SDS011;43217;52.694;6.214;2024-03-08T02:06:25;29.45;;;24.27;;
57389;SDS011;43217;52.694;6.214;2024-03-08T02:08:51;34.15;;;25.95;;
57389;SDS011;43217;52.694;6.214;2024-03-08T02:11:16;31.30;;;24.95;;
57389;SDS011;43217;52.694;6.214;2024-03-08T02:13:43;34.43;;;25.30;;
57389;SDS011;43217;52.694;6.214;2024-03-08T02:16:09;32.03;;;24.42;;
57389;SDS011;43217;52.694;6.214;2024-03-08T02:18:35;31.35;;;24.83;;
57389;SDS011;43217;52.694;6.214;2024-03-08T02:21:02;31.40;;;23.83;;
57389;SDS011;43217;52.694;6.214;2024-03-08T02:23:28;34.35;;;25.25;;
57389;SDS011;43217;52.694;6.214;2024-03-08T02:25:55;32.72;;;25.27;;
57389;SDS011;43217;52.694;6.214;2024-03-08T02:28:22;31.02;;;23.83;;
57389;SDS011;43217;52.694;6.214;2024-03-08T02:30:49;32.08;;;24.85;;
57389;SDS011;43217;52.694;6.214;2024-03-08T02:33:21;33.47;;;26.08;;
57389;SDS011;43217;52.694;6.214;2024-03-08T02:35:47;30.65;;;25.15;;
57389;SDS011;43217;52.694;6.214;2024-03-08T02:38:23;32.33;;;25.38;;
57389;SDS011;43217;52.694;6.214;2024-03-08T02:40:49;35.03;;;26.48;;
57389;SDS011;43217;52.694;6.214;2024-03-08T02:43:16;33.40;;;25.88;;
57389;SDS011;43217;52.694;6.214;2024-03-08T02:45:43;31.38;;;25.23;;
57389;SDS011;43217;52.694;6.214;2024-03-08T02:48:09;29.92;;;24.02;;
57389;SDS011;43217;52.694;6.214;2024-03-08T02:50:36;30.92;;;24.98;;
57389;SDS011;43217;52.694;6.214;2024-03-08T02:53:01;33.85;;;25.75;;
57389;SDS011;43217;52.694;6.214;2024-03-08T02:55:27;33.30;;;26.90;;
57389;SDS011;43217;52.694;6.214;2024-03-08T02:57:53;32.75;;;26.05;;
57389;SDS011;43217;52.694;6.214;2024-03-08T03:00:21;32.88;;;25.00;;
57389;SDS011;43217;52.694;6.214;2024-03-08T03:02:48;35.65;;;25.23;;
57389;SDS011;43217;52.694;6.214;2024-03-08T03:05:19;33.03;;;26.27;;
57389;SDS011;43217;52.694;6.214;2024-03-08T03:07:45;32.95;;;25.48;;
57389;SDS011;43217;52.694;6.214;2024-03-08T03:10:10;31.88;;;25.45;;
57389;SDS011;43217;52.694;6.214;2024-03-08T03:12:42;33.90;;;26.20;;
57389;SDS011;43217;52.694;6.214;2024-03-08T03:15:08;37.47;;;26.17;;
57389;SDS011;43217;52.694;6.214;2024-03-08T03:17:33;32.58;;;26.60;;
57389;SDS011;43217;52.694;6.214;2024-03-08T03:19:59;35.17;;;26.73;;
57389;SDS011;43217;52.694;6.214;2024-03-08T03:22:34;38.08;;;28.27;;
57389;SDS011;43217;52.694;6.214;2024-03-08T03:24:59;33.05;;;26.48;;
57389;SDS011;43217;52.694;6.214;2024-03-08T03:29:55;32.17;;;25.40;;
57389;SDS011;43217;52.694;6.214;2024-03-08T03:32:22;33.33;;;26.85;;
57389;SDS011;43217;52.694;6.214;2024-03-08T03:34:48;32.67;;;25.63;;
57389;SDS011;43217;52.694;6.214;2024-03-08T03:37:17;32.38;;;26.95;;
57389;SDS011;43217;52.694;6.214;2024-03-08T03:39:49;33.30;;;26.17;;
57389;SDS011;43217;52.694;6.214;2024-03-08T03:42:17;33.35;;;26.23;;
57389;SDS011;43217;52.694;6.214;2024-03-08T03:44:44;32.20;;;25.83;;
57389;SDS011;43217;52.694;6.214;2024-03-08T03:47:13;31.13;;;25.92;;
57389;SDS011;43217;52.694;6.214;2024-03-08T03:49:40;33.22;;;27.17;;
57389;SDS011;43217;52.694;6.214;2024-03-08T03:52:06;33.53;;;27.00;;
57389;SDS011;43217;52.694;6.214;2024-03-08T03:54:32;34.85;;;27.48;;
57389;SDS011;43217;52.694;6.214;2024-03-08T03:56:58;32.65;;;27.23;;
57389;SDS011;43217;52.694;6.214;2024-03-08T03:59:26;29.90;;;25.23;;
57389;SDS011;43217;52.694;6.214;2024-03-08T04:01:52;34.85;;;27.42;;
57389;SDS011;43217;52.694;6.214;2024-03-08T04:04:19;32.55;;;26.17;;
57389;SDS011;43217;52.694;6.214;2024-03-08T04:06:45;36.97;;;28.27;;
57389;SDS011;43217;52.694;6.214;2024-03-08T04:09:11;36.20;;;27.40;;
57389;SDS011;43217;52.694;6.214;2024-03-08T04:11:37;33.30;;;26.77;;
57389;SDS011;43217;52.694;6.214;2024-03-08T04:14:03;34.00;;;26.13;;
57389;SDS011;43217;52.694;6.214;2024-03-08T04:16:30;34.17;;;26.38;;
57389;SDS011;43217;52.694;6.214;2024-03-08T04:18:56;35.05;;;27.77;;
57389;SDS011;43217;52.694;6.214;2024-03-08T04:21:22;35.42;;;27.38;;
57389;SDS011;43217;52.694;6.214;2024-03-08T04:23:48;34.10;;;27.08;;
57389;SDS011;43217;52.694;6.214;2024-03-08T04:26:13;35.58;;;27.73;;
57389;SDS011;43217;52.694;6.214;2024-03-08T04:28:39;35.92;;;28.00;;
57389;SDS011;43217;52.694;6.214;2024-03-08T04:31:04;35.00;;;26.85;;
57389;SDS011;43217;52.694;6.214;2024-03-08T04:33:31;34.90;;;26.80;;
57389;SDS011;43217;52.694;6.214;2024-03-08T04:35:57;36.38;;;27.65;;
57389;SDS011;43217;52.694;6.214;2024-03-08T04:38:23;35.35;;;28.48;;
57389;SDS011;43217;52.694;6.214;2024-03-08T04:40:49;39.97;;;29.80;;
57389;SDS011;43217;52.694;6.214;2024-03-08T04:43:15;35.03;;;27.30;;
57389;SDS011;43217;52.694;6.214;2024-03-08T04:45:43;34.38;;;28.13;;
57389;SDS011;43217;52.694;6.214;2024-03-08T04:48:09;36.03;;;28.77;;
57389;SDS011;43217;52.694;6.214;2024-03-08T04:50:35;36.55;;;28.38;;
57389;SDS011;43217;52.694;6.214;2024-03-08T04:53:00;35.22;;;27.58;;
57389;SDS011;43217;52.694;6.214;2024-03-08T04:55:26;34.78;;;28.17;;
57389;SDS011;43217;52.694;6.214;2024-03-08T04:57:51;35.47;;;28.10;;
57389;SDS011;43217;52.694;6.214;2024-03-08T05:00:18;36.75;;;29.15;;
57389;SDS011;43217;52.694;6.214;2024-03-08T05:02:44;34.50;;;27.77;;
57389;SDS011;43217;52.694;6.214;2024-03-08T05:05:10;35.13;;;27.98;;
57389;SDS011;43217;52.694;6.214;2024-03-08T05:07:38;35.35;;;29.63;;
57389;SDS011;43217;52.694;6.214;2024-03-08T05:10:05;36.40;;;28.08;;
57389;SDS011;43217;52.694;6.214;2024-03-08T05:12:31;38.77;;;29.87;;
57389;SDS011;43217;52.694;6.214;2024-03-08T05:15:00;35.05;;;29.35;;
57389;SDS011;43217;52.694;6.214;2024-03-08T05:17:26;35.45;;;27.77;;
57389;SDS011;43217;52.694;6.214;2024-03-08T05:19:52;35.90;;;28.40;;
57389;SDS011;43217;52.694;6.214;2024-03-08T05:22:18;35.05;;;27.67;;
57389;SDS011;43217;52.694;6.214;2024-03-08T05:24:44;40.13;;;29.27;;
57389;SDS011;43217;52.694;6.214;2024-03-08T05:27:12;37.42;;;28.88;;
57389;SDS011;43217;52.694;6.214;2024-03-08T05:29:38;34.75;;;28.33;;
57389;SDS011;43217;52.694;6.214;2024-03-08T05:32:04;36.13;;;29.02;;
57389;SDS011;43217;52.694;6.214;2024-03-08T05:34:29;36.92;;;29.30;;
57389;SDS011;43217;52.694;6.214;2024-03-08T05:36:55;35.67;;;28.00;;
57389;SDS011;43217;52.694;6.214;2024-03-08T05:39:23;38.88;;;29.35;;
57389;SDS011;43217;52.694;6.214;2024-03-08T05:41:48;36.80;;;30.13;;
57389;SDS011;43217;52.694;6.214;2024-03-08T05:44:14;34.90;;;27.98;;
57389;SDS011;43217;52.694;6.214;2024-03-08T05:46:42;38.20;;;29.00;;
57389;SDS011;43217;52.694;6.214;2024-03-08T05:49:07;37.03;;;29.48;;
57389;SDS011;43217;52.694;6.214;2024-03-08T05:51:35;39.55;;;28.77;;
57389;SDS011;43217;52.694;6.214;2024-03-08T05:54:05;33.50;;;26.80;;
57389;SDS011;43217;52.694;6.214;2024-03-08T05:56:34;35.22;;;28.20;;
57389;SDS011;43217;52.694;6.214;2024-03-08T05:59:00;36.13;;;28.47;;
57389;SDS011;43217;52.694;6.214;2024-03-08T06:01:27;36.60;;;28.67;;
57389;SDS011;43217;52.694;6.214;2024-03-08T06:03:53;37.45;;;29.40;;
57389;SDS011;43217;52.694;6.214;2024-03-08T06:06:22;37.88;;;28.50;;
57389;SDS011;43217;52.694;6.214;2024-03-08T06:08:49;36.13;;;29.13;;
57389;SDS011;43217;52.694;6.214;2024-03-08T06:11:15;35.70;;;28.00;;
57389;SDS011;43217;52.694;6.214;2024-03-08T06:13:45;36.17;;;29.27;;
57389;SDS011;43217;52.694;6.214;2024-03-08T06:16:11;35.65;;;27.95;;
57389;SDS011;43217;52.694;6.214;2024-03-08T06:18:37;35.50;;;29.33;;
57389;SDS011;43217;52.694;6.214;2024-03-08T06:21:04;33.93;;;29.03;;
57389;SDS011;43217;52.694;6.214;2024-03-08T06:23:31;38.92;;;30.15;;
57389;SDS011;43217;52.694;6.214;2024-03-08T06:25:57;40.35;;;29.30;;
57389;SDS011;43217;52.694;6.214;2024-03-08T06:28:23;40.58;;;30.58;;
57389;SDS011;43217;52.694;6.214;2024-03-08T06:30:48;39.25;;;29.95;;
57389;SDS011;43217;52.694;6.214;2024-03-08T06:33:16;37.40;;;29.00;;
57389;SDS011;43217;52.694;6.214;2024-03-08T06:35:42;37.63;;;28.40;;
57389;SDS011;43217;52.694;6.214;2024-03-08T06:38:08;39.47;;;30.08;;
57389;SDS011;43217;52.694;6.214;2024-03-08T06:40:34;38.40;;;30.38;;
57389;SDS011;43217;52.694;6.214;2024-03-08T06:43:00;36.28;;;28.77;;
57389;SDS011;43217;52.694;6.214;2024-03-08T06:45:25;34.67;;;28.75;;
57389;SDS011;43217;52.694;6.214;2024-03-08T06:47:51;37.15;;;29.85;;
57389;SDS011;43217;52.694;6.214;2024-03-08T06:50:17;37.40;;;29.73;;
57389;SDS011;43217;52.694;6.214;2024-03-08T06:52:43;38.10;;;30.35;;
57389;SDS011;43217;52.694;6.214;2024-03-08T06:55:09;36.72;;;29.58;;
57389;SDS011;43217;52.694;6.214;2024-03-08T06:57:38;39.20;;;29.45;;
57389;SDS011;43217;52.694;6.214;2024-03-08T07:00:07;36.63;;;28.83;;
57389;SDS011;43217;52.694;6.214;2024-03-08T07:02:37;37.42;;;28.75;;
57389;SDS011;43217;52.694;6.214;2024-03-08T07:05:04;39.97;;;29.80;;
57389;SDS011;43217;52.694;6.214;2024-03-08T07:07:31;35.65;;;27.90;;
57389;SDS011;43217;52.694;6.214;2024-03-08T07:12:24;35.90;;;28.77;;
57389;SDS011;43217;52.694;6.214;2024-03-08T07:14:50;34.55;;;27.77;;
57389;SDS011;43217;52.694;6.214;2024-03-08T07:17:16;37.42;;;28.27;;
57389;SDS011;43217;52.694;6.214;2024-03-08T07:19:42;37.58;;;28.42;;
57389;SDS011;43217;52.694;6.214;2024-03-08T07:22:07;34.60;;;27.85;;
57389;SDS011;43217;52.694;6.214;2024-03-08T07:24:34;37.35;;;29.25;;
57389;SDS011;43217;52.694;6.214;2024-03-08T07:27:04;37.05;;;28.50;;
57389;SDS011;43217;52.694;6.214;2024-03-08T07:29:30;36.38;;;28.45;;
57389;SDS011;43217;52.694;6.214;2024-03-08T07:31:56;38.30;;;27.85;;
57389;SDS011;43217;52.694;6.214;2024-03-08T07:34:45;35.78;;;27.67;;
57389;SDS011;43217;52.694;6.214;2024-03-08T07:37:15;34.97;;;27.33;;
57389;SDS011;43217;52.694;6.214;2024-03-08T07:39:41;32.97;;;27.92;;
57389;SDS011;43217;52.694;6.214;2024-03-08T07:42:08;36.30;;;27.60;;
57389;SDS011;43217;52.694;6.214;2024-03-08T07:44:35;35.33;;;27.35;;
57389;SDS011;43217;52.694;6.214;2024-03-08T07:47:00;34.05;;;28.17;;
57389;SDS011;43217;52.694;6.214;2024-03-08T07:49:26;34.35;;;27.75;;
57389;SDS011;43217;52.694;6.214;2024-03-08T07:51:52;33.70;;;27.60;;
57389;SDS011;43217;52.694;6.214;2024-03-08T07:54:17;33.00;;;26.75;;
57389;SDS011;43217;52.694;6.214;2024-03-08T07:56:43;34.50;;;26.83;;
57389;SDS011;43217;52.694;6.214;2024-03-08T07:59:08;35.47;;;28.27;;
57389;SDS011;43217;52.694;6.214;2024-03-08T08:01:36;35.88;;;28.23;;
57389;SDS011;43217;52.694;6.214;2024-03-08T08:04:02;35.15;;;28.08;;
57389;SDS011;43217;52.694;6.214;2024-03-08T08:06:28;35.60;;;27.10;;
57389;SDS011;43217;52.694;6.214;2024-03-08T08:08:57;33.40;;;27.67;;
57389;SDS011;43217;52.694;6.214;2024-03-08T08:11:22;36.45;;;28.42;;
57389;SDS011;43217;52.694;6.214;2024-03-08T08:13:50;34.72;;;27.40;;
57389;SDS011;43217;52.694;6.214;2024-03-08T08:16:16;34.80;;;26.60;;
57389;SDS011;43217;52.694;6.214;2024-03-08T08:18:41;34.45;;;27.30;;
57389;SDS011;43217;52.694;6.214;2024-03-08T08:21:07;34.92;;;27.50;;
57389;SDS011;43217;52.694;6.214;2024-03-08T08:23:33;35.30;;;27.00;;
57389;SDS011;43217;52.694;6.214;2024-03-08T08:25:59;36.15;;;27.30;;
57389;SDS011;43217;52.694;6.214;2024-03-08T08:28:25;33.13;;;26.92;;
57389;SDS011;43217;52.694;6.214;2024-03-08T08:30:50;34.25;;;27.65;;
57389;SDS011;43217;52.694;6.214;2024-03-08T08:33:16;34.33;;;27.45;;
57389;SDS011;43217;52.694;6.214;2024-03-08T08:35:42;36.22;;;27.95;;
57389;SDS011;43217;52.694;6.214;2024-03-08T08:38:07;32.00;;;26.52;;
57389;SDS011;43217;52.694;6.214;2024-03-08T08:40:33;34.55;;;28.35;;
57389;SDS011;43217;52.694;6.214;2024-03-08T08:43:03;35.15;;;28.10;;
57389;SDS011;43217;52.694;6.214;2024-03-08T08:45:32;34.00;;;27.85;;
57389;SDS011;43217;52.694;6.214;2024-03-08T08:47:58;34.40;;;27.98;;
57389;SDS011;43217;52.694;6.214;2024-03-08T08:50:25;34.20;;;27.55;;
57389;SDS011;43217;52.694;6.214;2024-03-08T08:52:51;31.85;;;26.52;;
57389;SDS011;43217;52.694;6.214;2024-03-08T08:55:20;32.83;;;28.05;;
57389;SDS011;43217;52.694;6.214;2024-03-08T08:57:49;31.85;;;25.63;;
57389;SDS011;43217;52.694;6.214;2024-03-08T09:00:17;32.05;;;26.70;;
57389;SDS011;43217;52.694;6.214;2024-03-08T09:02:45;32.58;;;27.33;;
57389;SDS011;43217;52.694;6.214;2024-03-08T09:05:10;32.35;;;27.00;;
57389;SDS011;43217;52.694;6.214;2024-03-08T09:07:42;30.88;;;26.77;;
57389;SDS011;43217;52.694;6.214;2024-03-08T09:12:37;30.88;;;26.13;;
57389;SDS011;43217;52.694;6.214;2024-03-08T09:15:04;36.95;;;28.13;;
57389;SDS011;43217;52.694;6.214;2024-03-08T09:17:30;31.55;;;27.15;;
57389;SDS011;43217;52.694;6.214;2024-03-08T09:19:58;31.63;;;27.15;;
57389;SDS011;43217;52.694;6.214;2024-03-08T09:22:24;33.67;;;27.15;;
57389;SDS011;43217;52.694;6.214;2024-03-08T09:24:53;32.22;;;27.08;;
57389;SDS011;43217;52.694;6.214;2024-03-08T09:27:18;31.67;;;26.90;;
57389;SDS011;43217;52.694;6.214;2024-03-08T09:29:44;31.42;;;27.20;;
57389;SDS011;43217;52.694;6.214;2024-03-08T09:32:10;35.67;;;27.15;;
57389;SDS011;43217;52.694;6.214;2024-03-08T09:34:36;33.22;;;27.48;;
57389;SDS011;43217;52.694;6.214;2024-03-08T09:37:02;32.78;;;28.63;;
57389;SDS011;43217;52.694;6.214;2024-03-08T09:39:29;32.88;;;27.30;;
57389;SDS011;43217;52.694;6.214;2024-03-08T09:41:55;33.83;;;27.83;;
57389;SDS011;43217;52.694;6.214;2024-03-08T09:44:21;35.08;;;28.48;;
57389;SDS011;43217;52.694;6.214;2024-03-08T09:46:47;34.08;;;26.65;;
57389;SDS011;43217;52.694;6.214;2024-03-08T09:49:13;32.92;;;27.73;;
57389;SDS011;43217;52.694;6.214;2024-03-08T09:51:38;33.50;;;28.30;;
57389;SDS011;43217;52.694;6.214;2024-03-08T09:54:07;33.95;;;27.35;;
57389;SDS011;43217;52.694;6.214;2024-03-08T09:56:33;32.38;;;27.65;;
57389;SDS011;43217;52.694;6.214;2024-03-08T09:59:01;32.95;;;27.77;;
57389;SDS011;43217;52.694;6.214;2024-03-08T10:02:05;33.30;;;27.58;;
57389;SDS011;43217;52.694;6.214;2024-03-08T10:04:30;31.92;;;27.38;;
57389;SDS011;43217;52.694;6.214;2024-03-08T10:07:00;32.20;;;27.98;;
57389;SDS011;43217;52.694;6.214;2024-03-08T10:09:26;31.67;;;26.98;;
57389;SDS011;43217;52.694;6.214;2024-03-08T10:11:56;31.83;;;27.23;;
57389;SDS011;43217;52.694;6.214;2024-03-08T10:14:23;32.63;;;28.30;;
57389;SDS011;43217;52.694;6.214;2024-03-08T10:16:51;34.65;;;28.83;;
57389;SDS011;43217;52.694;6.214;2024-03-08T10:19:17;33.10;;;27.17;;
57389;SDS011;43217;52.694;6.214;2024-03-08T10:21:49;31.70;;;27.38;;
57389;SDS011;43217;52.694;6.214;2024-03-08T10:24:18;30.52;;;27.08;;
57389;SDS011;43217;52.694;6.214;2024-03-08T10:26:44;33.60;;;28.15;;
57389;SDS011;43217;52.694;6.214;2024-03-08T10:29:13;31.20;;;27.67;;
57389;SDS011;43217;52.694;6.214;2024-03-08T10:31:42;33.15;;;27.65;;
57389;SDS011;43217;52.694;6.214;2024-03-08T10:34:09;31.90;;;27.65;;
57389;SDS011;43217;52.694;6.214;2024-03-08T10:36:35;31.20;;;27.70;;
57389;SDS011;43217;52.694;6.214;2024-03-08T10:39:05;32.63;;;28.17;;
57389;SDS011;43217;52.694;6.214;2024-03-08T10:41:51;32.58;;;27.83;;
57389;SDS011;43217;52.694;6.214;2024-03-08T10:47:01;34.33;;;27.55;;
57389;SDS011;43217;52.694;6.214;2024-03-08T10:49:43;34.35;;;28.27;;
57389;SDS011;43217;52.694;6.214;2024-03-08T10:52:19;33.47;;;27.92;;
57389;SDS011;43217;52.694;6.214;2024-03-08T10:54:45;33.65;;;28.55;;
57389;SDS011;43217;52.694;6.214;2024-03-08T10:57:14;31.42;;;27.85;;
57389;SDS011;43217;52.694;6.214;2024-03-08T10:59:43;31.27;;;27.30;;
57389;SDS011;43217;52.694;6.214;2024-03-08T11:02:11;33.08;;;28.48;;
57389;SDS011;43217;52.694;6.214;2024-03-08T11:04:37;32.97;;;27.95;;
57389;SDS011;43217;52.694;6.214;2024-03-08T11:07:03;33.53;;;27.67;;
57389;SDS011;43217;52.694;6.214;2024-03-08T11:09:35;31.45;;;27.55;;
57389;SDS011;43217;52.694;6.214;2024-03-08T11:14:52;32.65;;;27.35;;
57389;SDS011;43217;52.694;6.214;2024-03-08T11:19:52;33.33;;;27.95;;
57389;SDS011;43217;52.694;6.214;2024-03-08T11:22:27;31.95;;;27.02;;
57389;SDS011;43217;52.694;6.214;2024-03-08T11:25:04;34.53;;;27.63;;
57389;SDS011;43217;52.694;6.214;2024-03-08T11:27:35;30.45;;;26.95;;
57389;SDS011;43217;52.694;6.214;2024-03-08T11:30:05;31.85;;;26.98;;
57389;SDS011;43217;52.694;6.214;2024-03-08T11:32:36;34.60;;;27.92;;
57389;SDS011;43217;52.694;6.214;2024-03-08T11:35:05;30.77;;;26.80;;
57389;SDS011;43217;52.694;6.214;2024-03-08T11:37:33;32.53;;;27.50;;
57389;SDS011;43217;52.694;6.214;2024-03-08T11:40:00;31.60;;;27.83;;
57389;SDS011;43217;52.694;6.214;2024-03-08T11:42:29;30.35;;;26.65;;
57389;SDS011;43217;52.694;6.214;2024-03-08T11:44:55;31.17;;;26.35;;
57389;SDS011;43217;52.694;6.214;2024-03-08T11:47:23;30.92;;;26.73;;
57389;SDS011;43217;52.694;6.214;2024-03-08T11:49:51;31.17;;;26.95;;
57389;SDS011;43217;52.694;6.214;2024-03-08T11:52:18;31.00;;;25.70;;
57389;SDS011;43217;52.694;6.214;2024-03-08T11:54:48;30.35;;;26.70;;
57389;SDS011;43217;52.694;6.214;2024-03-08T11:57:22;29.42;;;24.92;;
57389;SDS011;43217;52.694;6.214;2024-03-08T11:59:51;30.27;;;25.67;;
57389;SDS011;43217;52.694;6.214;2024-03-08T12:02:17;30.63;;;25.88;;
57389;SDS011;43217;52.694;6.214;2024-03-08T12:04:44;30.73;;;26.00;;
57389;SDS011;43217;52.694;6.214;2024-03-08T12:07:13;28.77;;;25.77;;
57389;SDS011;43217;52.694;6.214;2024-03-08T12:09:42;28.60;;;25.58;;
57389;SDS011;43217;52.694;6.214;2024-03-08T12:12:11;30.70;;;25.52;;
57389;SDS011;43217;52.694;6.214;2024-03-08T12:14:38;28.50;;;25.35;;
57389;SDS011;43217;52.694;6.214;2024-03-08T12:17:07;27.13;;;24.23;;
57389;SDS011;43217;52.694;6.214;2024-03-08T12:19:35;28.30;;;24.50;;
57389;SDS011;43217;52.694;6.214;2024-03-08T12:22:09;28.27;;;25.00;;
57389;SDS011;43217;52.694;6.214;2024-03-08T12:24:37;28.00;;;24.35;;
57389;SDS011;43217;52.694;6.214;2024-03-08T12:27:17;28.80;;;24.45;;
57389;SDS011;43217;52.694;6.214;2024-03-08T12:29:44;28.25;;;24.05;;
57389;SDS011;43217;52.694;6.214;2024-03-08T12:32:09;29.75;;;23.85;;
57389;SDS011;43217;52.694;6.214;2024-03-08T12:34:36;28.65;;;24.73;;
57389;SDS011;43217;52.694;6.214;2024-03-08T12:37:02;28.27;;;24.52;;
57389;SDS011;43217;52.694;6.214;2024-03-08T12:39:27;28.92;;;24.30;;
57389;SDS011;43217;52.694;6.214;2024-03-08T12:41:55;29.73;;;25.00;;
57389;SDS011;43217;52.694;6.214;2024-03-08T12:44:22;27.10;;;24.20;;
57389;SDS011;43217;52.694;6.214;2024-03-08T12:46:48;29.02;;;25.10;;
57389;SDS011;43217;52.694;6.214;2024-03-08T12:49:14;29.05;;;25.20;;
57389;SDS011;43217;52.694;6.214;2024-03-08T12:51:43;28.30;;;24.83;;
57389;SDS011;43217;52.694;6.214;2024-03-08T12:54:09;29.30;;;24.27;;
57389;SDS011;43217;52.694;6.214;2024-03-08T12:56:35;27.10;;;24.10;;
57389;SDS011;43217;52.694;6.214;2024-03-08T12:59:05;27.20;;;23.45;;
57389;SDS011;43217;52.694;6.214;2024-03-08T13:01:33;26.80;;;23.95;;
57389;SDS011;43217;52.694;6.214;2024-03-08T13:04:00;27.70;;;24.17;;
57389;SDS011;43217;52.694;6.214;2024-03-08T13:06:27;25.42;;;22.45;;
57389;SDS011;43217;52.694;6.214;2024-03-08T13:08:54;28.08;;;23.63;;
57389;SDS011;43217;52.694;6.214;2024-03-08T13:11:20;26.30;;;23.02;;
57389;SDS011;43217;52.694;6.214;2024-03-08T13:13:46;26.83;;;23.92;;
57389;SDS011;43217;52.694;6.214;2024-03-08T13:16:12;25.13;;;22.45;;
57389;SDS011;43217;52.694;6.214;2024-03-08T13:18:42;26.20;;;23.35;;
57389;SDS011;43217;52.694;6.214;2024-03-08T13:21:08;26.60;;;23.10;;
57389;SDS011;43217;52.694;6.214;2024-03-08T13:23:35;24.77;;;21.95;;
57389;SDS011;43217;52.694;6.214;2024-03-08T13:26:07;23.48;;;20.85;;
57389;SDS011;43217;52.694;6.214;2024-03-08T13:28:34;25.23;;;22.52;;
57389;SDS011;43217;52.694;6.214;2024-03-08T13:31:03;25.33;;;22.38;;
57389;SDS011;43217;52.694;6.214;2024-03-08T13:33:32;24.58;;;22.00;;
57389;SDS011;43217;52.694;6.214;2024-03-08T13:36:01;24.77;;;22.23;;
57389;SDS011;43217;52.694;6.214;2024-03-08T13:40:54;24.95;;;22.30;;
57389;SDS011;43217;52.694;6.214;2024-03-08T13:43:19;24.52;;;21.70;;
57389;SDS011;43217;52.694;6.214;2024-03-08T13:45:45;24.67;;;22.02;;
57389;SDS011;43217;52.694;6.214;2024-03-08T13:48:11;25.48;;;22.67;;
57389;SDS011;43217;52.694;6.214;2024-03-08T13:50:38;25.17;;;22.55;;
57389;SDS011;43217;52.694;6.214;2024-03-08T13:53:04;25.70;;;22.30;;
57389;SDS011;43217;52.694;6.214;2024-03-08T13:55:30;25.48;;;22.63;;
57389;SDS011;43217;52.694;6.214;2024-03-08T13:57:56;26.00;;;22.75;;
57389;SDS011;43217;52.694;6.214;2024-03-08T14:00:25;26.13;;;22.35;;
57389;SDS011;43217;52.694;6.214;2024-03-08T14:05:19;24.92;;;22.17;;
57389;SDS011;43217;52.694;6.214;2024-03-08T14:07:45;26.85;;;23.77;;
57389;SDS011;43217;52.694;6.214;2024-03-08T14:10:14;24.55;;;21.27;;
57389;SDS011;43217;52.694;6.214;2024-03-08T14:12:40;24.15;;;21.60;;
57389;SDS011;43217;52.694;6.214;2024-03-08T14:17:33;24.65;;;22.05;;
57389;SDS011;43217;52.694;6.214;2024-03-08T14:19:59;25.65;;;22.85;;
57389;SDS011;43217;52.694;6.214;2024-03-08T14:22:24;28.27;;;23.15;;
57389;SDS011;43217;52.694;6.214;2024-03-08T14:24:50;24.10;;;21.48;;
57389;SDS011;43217;52.694;6.214;2024-03-08T14:27:17;25.02;;;22.33;;
57389;SDS011;43217;52.694;6.214;2024-03-08T14:29:43;24.83;;;22.15;;
57389;SDS011;43217;52.694;6.214;2024-03-08T14:32:09;24.95;;;21.42;;
57389;SDS011;43217;52.694;6.214;2024-03-08T14:34:35;25.25;;;22.42;;
57389;SDS011;43217;52.694;6.214;2024-03-08T14:37:01;25.30;;;22.65;;
57389;SDS011;43217;52.694;6.214;2024-03-08T14:39:30;26.42;;;23.40;;
57389;SDS011;43217;52.694;6.214;2024-03-08T14:41:58;24.80;;;22.20;;
57389;SDS011;43217;52.694;6.214;2024-03-08T14:44:25;26.25;;;22.67;;